• Join FlightAware (Why Join?)
  • Login
  • US Flag 
11:00AM EST


 

Airport Tracker/Info


-or-


 

Live Flight TrackerFlight Track Log ✈ ASQ5685 ✈ 21-Jul-2013 ✈ KATL - KIAD

Flight Track Log - Related Links

Times and Time Zones

All times are in EDT time to prevent confusion due to time zone crossing. See the ASQ5685 flight status page for this flight to view local times or setup timezone preferences in your user account.

Time Position Orientation Groundspeed Altitude Reporting Facility
EDT Latitude Longitude Course Direction KTS MPH feet Rate Location/Type
01:25PM 33.6667 -84.5000 48° Northeast 216 249 2,900  Level Atlanta TRACON
01:26PM 33.7000 -84.5667 301° West 279 321 5,600 2,700 Climbing Atlanta TRACON
01:27PM 33.8541 -84.1696 73° East  Level Estimated
01:27PM 33.7667 -84.5833 348° North 291 335 8,300  Level Atlanta TRACON
01:28PM 33.9264 -84.0832 54° Northeast  Level Estimated
01:29PM 33.9027 -83.9638 103° East  Level FlightAware Approximate
01:30PM 33.9758 -83.8782 48° Northeast  Level Estimated
01:30PM 33.8125 -84.3589 76° East 304 350 12,700  Level Atlanta Center
01:31PM 33.8211 -84.2339 85° East 352 405 14,000 1,380 Climbing Atlanta Center
01:32PM 33.8464 -84.1114 76° East 371 427 15,500 1,500 Climbing Atlanta Center
01:33PM 33.8714 -83.9836 77° East 381 438 17,000 1,440 Climbing Atlanta Center
01:34PM 33.8983 -83.8536 76° East 386 444 18,400 1,440 Climbing Atlanta Center
01:35PM 33.9253 -83.7283 75° East 392 451 19,900 1,320 Climbing Atlanta Center
01:36PM 33.9897 -83.6178 55° Northeast 387 445 21,100 1,200 Climbing Atlanta Center
01:37PM 34.0561 -83.5147 52° Northeast 393 452 22,300 1,200 Climbing Atlanta Center
01:38PM 34.1244 -83.4039 53° Northeast 400 460 23,500 1,080 Climbing Atlanta Center
01:39PM 34.1947 -83.2878 54° Northeast 400 460 24,500 900 Climbing Atlanta Center
01:40PM 34.2628 -83.1767 53° Northeast 405 466 25,400 840 Climbing Atlanta Center
01:41PM 34.3372 -83.0678 50° Northeast 405 466 26,200 780 Climbing Atlanta Center
01:42PM 34.4031 -82.9536 55° Northeast 416 479 27,000 780 Climbing Atlanta Center
01:43PM 34.4750 -82.8394 53° Northeast 424 488 27,800 780 Climbing Atlanta Center
01:44PM 34.5447 -82.7250 53° Northeast 419 482 28,600 780 Climbing Atlanta Center
01:45PM 34.6144 -82.6103 54° Northeast 419 482 29,400 780 Climbing Atlanta Center
01:46PM 34.6883 -82.4978 51° Northeast 419 482 30,200 780 Climbing Atlanta Center
01:47PM 34.7578 -82.3853 53° Northeast 419 482 31,000 360 Climbing Atlanta Center
01:48PM 34.8292 -82.2675 54° Northeast 419 482 31,000  Level Atlanta Center
01:49PM 34.8983 -82.1519 54° Northeast 419 482 31,000  Level Atlanta Center
01:50PM 34.9717 -82.0364 52° Northeast 419 482 31,000  Level Atlanta Center
01:51PM 35.0406 -81.9181 55° Northeast 419 482 31,000  Level Atlanta Center
01:52PM 35.1053 -81.7919 58° Northeast 425 489 31,000  Level Atlanta Center
01:53PM 35.1697 -81.6708 57° Northeast 425 489 31,000  Level Atlanta Center
01:54PM 35.2361 -81.5467 57° Northeast 425 489 31,000  Level Atlanta Center
01:55PM 35.3003 -81.4228 58° Northeast 425 489 31,000  Level Atlanta Center
01:56PM 35.3622 -81.2986 59° Northeast 425 489 31,000  Level Atlanta Center
01:57PM 35.4261 -81.1739 58° Northeast 425 489 31,000  Level Atlanta Center
01:58PM 35.4939 -81.0442 57° Northeast 433 498 31,000  Level Atlanta Center
01:59PM 35.5597 -80.9217 57° Northeast 433 498 31,000  Level Atlanta Center
02:00PM 35.6256 -80.7992 57° Northeast 433 498 31,000  Level Atlanta Center
02:01PM 35.6908 -80.6714 58° Northeast 433 498 31,000  Level Atlanta Center
02:02PM 35.7483 -80.5614 57° Northeast 433 498 31,000  Level Atlanta Center
02:03PM 35.8133 -80.4331 58° Northeast 433 498 31,000  Level Atlanta Center
02:04PM 35.8764 -80.3075 58° Northeast 434 499 31,000  Level Atlanta Center
02:06PM 36.0103 -80.0497 57° Northeast 430 495 31,000  Level Washington Center
02:07PM 36.0775 -79.9250 56° Northeast 430 495 31,000  Level Washington Center
02:08PM 36.1444 -79.8053 55° Northeast 430 495 31,000  Level Washington Center
02:09PM 36.2156 -79.6803 55° Northeast 435 501 31,000  Level Washington Center
02:10PM 36.2911 -79.5425 56° Northeast 435 501 31,000 -300 Level Washington Center
02:11PM 36.3553 -79.4347 54° Northeast 430 495 30,400 -720 Descending Washington Center
02:12PM 36.4306 -79.2939 56° Northeast 436 502 29,700 -900 Descending Washington Center
02:13PM 36.4967 -79.1756 55° Northeast 448 516 28,700 -1,200 Descending Washington Center
02:14PM 36.5714 -79.0497 53° Northeast 448 516 27,300 -1,440 Descending Washington Center
02:15PM 36.6419 -78.9208 56° Northeast 448 516 25,900 -1,200 Descending Washington Center
02:16PM 36.7167 -78.7817 56° Northeast 448 516 25,000 -480 Descending Washington Center
02:17PM 36.7844 -78.6572 56° Northeast 442 509 25,000  Level Washington Center
02:18PM 36.8481 -78.5378 56° Northeast 424 488 25,000  Level Washington Center
02:19PM 36.9133 -78.4261 54° Northeast 412 474 25,000  Level Washington Center
02:20PM 36.9964 -78.3536 35° Northeast 399 459 25,000  Level Washington Center
02:21PM 37.0897 -78.2842 31° Northeast 388 447 25,000 -240 Level Washington Center
02:22PM 37.1853 -78.2119 31° Northeast 388 447 24,600 -840 Descending Washington Center
02:23PM 37.2933 -78.1319 30° Northeast 405 466 23,400 -1,140 Descending Washington Center
02:24PM 37.3950 -78.0517 32° Northeast 416 479 22,400 -720 Descending Washington Center
02:25PM 37.4989 -77.9739 31° Northeast 421 484 22,000 -240 Descending Washington Center
02:26PM 37.5983 -77.8958 32° Northeast 426 490 22,000 -660 Level Washington Center
02:27PM 37.6958 -77.8253 30° Northeast 416 479 20,700 -1,920 Descending Washington Center
02:28PM 37.7889 -77.7517 32° Northeast 404 465 18,300 -2,400 Descending Washington Center
02:29PM 37.8797 -77.6808 32° Northeast 394 453 16,000 -2,220 Descending Washington Center
02:30PM 37.9664 -77.6119 32° Northeast 382 440 13,800 -2,220 Descending Washington Center
02:31PM 38.0508 -77.5511 30° Northeast 362 417 11,600 -1,980 Descending Washington Center
02:32PM 38.1292 -77.4897 32° Northeast 347 399 10,000 -840 Descending Washington Center
02:33PM 38.2008 -77.4361 30° Northeast 314 361 10,000 -120 Level Washington Center
02:34PM 38.2744 -77.3928 25° Northeast 298 343 9,800 -720 Descending Washington Center
02:35PM 38.3481 -77.3575 21° North 280 322 8,600 -1,320 Descending Washington Center
02:36PM 38.4228 -77.3806 346° North 261 300 7,200 -1,440 Descending Washington Center
02:37PM 38.4950 -77.4142 340° North 261 300 5,800 -1,380 Descending Washington Center
02:38PM 38.5656 -77.4450 341° North 266 306 4,500 -960 Descending Washington Center
02:39PM 38.6364 -77.4547 354° North 261 300 4,000 -300 Descending Washington Center
02:40PM 38.7069 -77.4619 355° North 256 295 4,000 -240 Level Washington Center
02:41PM 38.7758 -77.4664 357° North 256 295 3,600 -420 Descending Washington Center